WIF21G ENTC-ENBO

Flight info

Callsign WIF21G
Flight time 0h 46m
Altitude 24000
Route AMIMO DCT GEPTU
Aircraft DH8D/M-SDE2E3FGRY/H

Departure

Time 2026-05-05 08:40
Airport Tromsø Airport (ENTC)

Arrival

Time 2026-05-05 09:27
Airport Bodø Airport (ENBO)
Time Latitude Longitude Altitude Speed Heading
2026-05-05 08:10 69.68124 18.90977 26 ft 0 kts 284°
2026-05-05 08:17 69.68124 18.90978 26 ft 0 kts 284°
2026-05-05 08:36 69.68121 18.90965 25 ft 2 kts 206°
2026-05-05 08:36 69.68116 18.90973 25 ft 0 kts 129°
2026-05-05 08:36 69.68115 18.91064 27 ft 10 kts 89°
2026-05-05 08:36 69.68099 18.91277 29 ft 5 kts 120°
2026-05-05 08:37 69.68044 18.91312 29 ft 14 kts 192°
2026-05-05 08:37 69.67905 18.91218 28 ft 21 kts 192°
2026-05-05 08:37 69.67750 18.91114 24 ft 25 kts 193°
2026-05-05 08:37 69.67636 18.91132 21 ft 10 kts 109°
2026-05-05 08:38 69.67623 18.91280 24 ft 9 kts 104°
2026-05-05 08:38 69.67545 18.91376 23 ft 21 kts 193°
2026-05-05 08:38 69.67385 18.91260 17 ft 21 kts 192°
2026-05-05 08:38 69.67278 18.91123 13 ft 9 kts 197°
2026-05-05 08:39 69.67261 18.91174 14 ft 2 kts 57°
2026-05-05 08:39 69.67281 18.91193 15 ft 4 kts
2026-05-05 08:39 69.67293 18.91200 15 ft 0 kts 13°
2026-05-05 08:40 69.67328 18.91223 16 ft 29 kts 14°
2026-05-05 08:40 69.67838 18.91559 35 ft 113 kts 13°
2026-05-05 08:40 69.68730 18.92129 256 ft 141 kts 13°
2026-05-05 08:40 69.69712 18.92723 798 ft 150 kts 13°
2026-05-05 08:41 69.70771 18.93378 1276 ft 165 kts 16°
2026-05-05 08:41 69.71890 18.94086 1886 ft 169 kts 13°
2026-05-05 08:41 69.73071 18.94773 2363 ft 183 kts 14°
2026-05-05 08:41 69.74352 18.95582 2935 ft 189 kts 15°
2026-05-05 08:42 69.75600 18.96383 3615 ft 191 kts 16°
2026-05-05 08:42 69.76977 18.97036 3968 ft 213 kts
2026-05-05 08:42 69.78439 18.95670 4376 ft 230 kts 327°
2026-05-05 08:42 69.79448 18.92124 4973 ft 237 kts 295°
2026-05-05 08:43 69.79878 18.87608 5666 ft 235 kts 279°
2026-05-05 08:43 69.80130 18.82927 6267 ft 240 kts 276°
2026-05-05 08:43 69.80402 18.78166 6865 ft 242 kts 278°
2026-05-05 08:43 69.80702 18.73303 7473 ft 245 kts 274°
2026-05-05 08:44 69.80476 18.68650 8051 ft 235 kts 243°
2026-05-05 08:44 69.79564 18.64827 8577 ft 233 kts 221°
2026-05-05 08:44 69.78329 18.61927 9400 ft 221 kts 213°
2026-05-05 08:44 69.77100 18.59645 10273 ft 211 kts 209°
2026-05-05 08:45 69.75794 18.57418 10616 ft 227 kts 209°
2026-05-05 08:45 69.74448 18.55166 11301 ft 225 kts 210°
2026-05-05 08:45 69.73101 18.52947 11944 ft 225 kts 210°
2026-05-05 08:45 69.71743 18.50726 12544 ft 227 kts 210°
2026-05-05 08:46 69.70375 18.48503 13113 ft 230 kts 210°
2026-05-05 08:46 69.68968 18.46224 13720 ft 232 kts 211°
2026-05-05 08:46 69.67584 18.43987 14318 ft 233 kts 211°
2026-05-05 08:46 69.66171 18.41711 14830 ft 235 kts 211°
2026-05-05 08:47 69.64749 18.39426 15315 ft 237 kts 211°
2026-05-05 08:47 69.63313 18.37122 15812 ft 239 kts 211°
2026-05-05 08:47 69.61850 18.34780 16333 ft 241 kts 210°
2026-05-05 08:47 69.60384 18.32433 16850 ft 243 kts 210°
2026-05-05 08:48 69.58902 18.30066 17377 ft 245 kts 210°
2026-05-05 08:48 69.57416 18.27698 17912 ft 247 kts 210°
2026-05-05 08:48 69.55922 18.25320 18428 ft 249 kts 210°
2026-05-05 08:48 69.54399 18.22899 18921 ft 251 kts 210°
2026-05-05 08:49 69.52892 18.20507 19381 ft 252 kts 210°
2026-05-05 08:49 69.51356 18.18076 19823 ft 254 kts 210°
2026-05-05 08:49 69.49812 18.15632 20248 ft 256 kts 210°
2026-05-05 08:49 69.48240 18.13152 20660 ft 258 kts 211°
2026-05-05 08:50 69.46667 18.10676 21051 ft 260 kts 211°
2026-05-05 08:50 69.45088 18.08192 21424 ft 261 kts 211°
2026-05-05 08:50 69.43497 18.05693 21780 ft 263 kts 211°
2026-05-05 08:50 69.41893 18.03179 22126 ft 265 kts 211°
2026-05-05 08:51 69.40290 18.00670 22453 ft 266 kts 211°
2026-05-05 08:51 69.38670 17.98137 22768 ft 267 kts 211°
2026-05-05 08:51 69.37043 17.95521 23072 ft 269 kts 212°
2026-05-05 08:51 69.35433 17.92864 23362 ft 270 kts 212°
2026-05-05 08:52 69.33799 17.90163 23514 ft 276 kts 212°
2026-05-05 08:52 69.32112 17.87382 23557 ft 285 kts 212°
2026-05-05 08:52 69.30382 17.84544 23567 ft 293 kts 212°
2026-05-05 08:52 69.28593 17.81626 23568 ft 300 kts 212°
2026-05-05 08:53 69.26789 17.78693 23567 ft 305 kts 212°
2026-05-05 08:53 69.24934 17.75684 23562 ft 308 kts 212°
2026-05-05 08:53 69.23063 17.72660 23561 ft 308 kts 212°
2026-05-05 08:53 69.21202 17.69680 23581 ft 310 kts 210°
2026-05-05 08:54 69.19353 17.66721 23848 ft 305 kts 210°
2026-05-05 08:54 69.17520 17.63764 23960 ft 306 kts 210°
2026-05-05 08:54 69.15677 17.60793 23994 ft 310 kts 210°
2026-05-05 08:54 69.13802 17.57781 24003 ft 314 kts 210°
2026-05-05 08:55 69.11882 17.54704 24005 ft 318 kts 210°
2026-05-05 08:55 69.09965 17.51641 24004 ft 321 kts 210°
2026-05-05 08:55 69.08025 17.48547 24003 ft 325 kts 210°
2026-05-05 08:55 69.06062 17.45427 24003 ft 327 kts 210°
2026-05-05 08:56 69.04063 17.42257 24002 ft 330 kts 210°
2026-05-05 08:56 69.02065 17.39094 24002 ft 332 kts 210°
2026-05-05 08:56 69.00048 17.35909 24002 ft 334 kts 210°
2026-05-05 08:56 68.98042 17.32748 24001 ft 335 kts 209°
2026-05-05 08:57 68.95990 17.29519 24001 ft 337 kts 209°
2026-05-05 08:57 68.93977 17.26359 24001 ft 338 kts 209°
2026-05-05 08:57 68.91930 17.23153 24000 ft 338 kts 209°
2026-05-05 08:57 68.89865 17.19925 24000 ft 339 kts 209°
2026-05-05 08:58 68.87809 17.16718 24000 ft 340 kts 209°
2026-05-05 08:58 68.85751 17.13517 23999 ft 340 kts 209°
2026-05-05 08:58 68.83684 17.10309 24000 ft 340 kts 209°
2026-05-05 08:58 68.81616 17.07104 24000 ft 340 kts 209°
2026-05-05 08:59 68.79575 17.03948 24000 ft 341 kts 209°
2026-05-05 08:59 68.77508 17.00758 24000 ft 341 kts 209°
2026-05-05 08:59 68.75428 16.97646 23994 ft 341 kts 205°
2026-05-05 08:59 68.73194 16.95602 24014 ft 340 kts 194°
2026-05-05 09:00 68.70860 16.94158 24003 ft 341 kts 192°
2026-05-05 09:00 68.68565 16.92774 23998 ft 342 kts 192°
2026-05-05 09:00 68.66260 16.91375 23998 ft 342 kts 192°
2026-05-05 09:00 68.63939 16.89955 23999 ft 342 kts 193°
2026-05-05 09:01 68.61603 16.88521 24000 ft 342 kts 193°
2026-05-05 09:01 68.59291 16.87097 24000 ft 342 kts 193°
2026-05-05 09:01 68.56980 16.85675 24000 ft 342 kts 193°
2026-05-05 09:01 68.54664 16.84251 24000 ft 342 kts 193°
2026-05-05 09:02 68.52361 16.82836 24000 ft 343 kts 193°
2026-05-05 09:02 68.50027 16.81405 24000 ft 343 kts 193°
2026-05-05 09:02 68.47698 16.79980 24000 ft 343 kts 193°
2026-05-05 09:02 68.45392 16.78571 24000 ft 343 kts 193°
2026-05-05 09:03 68.43053 16.77145 24000 ft 343 kts 193°
2026-05-05 09:03 68.40756 16.75747 24000 ft 343 kts 193°
2026-05-05 09:03 68.38418 16.74328 24000 ft 343 kts 193°
2026-05-05 09:03 68.36095 16.72921 23999 ft 343 kts 193°
2026-05-05 09:04 68.33762 16.71510 24000 ft 343 kts 193°
2026-05-05 09:04 68.31460 16.70121 24000 ft 343 kts 193°
2026-05-05 09:04 68.29133 16.68719 24000 ft 343 kts 193°
2026-05-05 09:04 68.26811 16.67324 24000 ft 343 kts 193°
2026-05-05 09:05 68.24474 16.65923 24000 ft 343 kts 193°
2026-05-05 09:05 68.22162 16.64531 24000 ft 343 kts 193°
2026-05-05 09:05 68.19821 16.63133 24000 ft 343 kts 193°
2026-05-05 09:05 68.17512 16.61761 24000 ft 343 kts 193°
2026-05-05 09:06 68.15189 16.60382 23971 ft 344 kts 193°
2026-05-05 09:06 68.12875 16.59010 23803 ft 340 kts 193°
2026-05-05 09:06 68.10597 16.57669 23604 ft 330 kts 193°
2026-05-05 09:06 68.08384 16.56374 23427 ft 322 kts 193°
2026-05-05 09:07 68.06222 16.55106 23270 ft 317 kts 193°
2026-05-05 09:07 68.04082 16.53848 23113 ft 313 kts 193°
2026-05-05 09:07 68.01977 16.52612 22958 ft 308 kts 193°
2026-05-05 09:07 67.99907 16.51398 22803 ft 305 kts 193°
2026-05-05 09:08 67.97867 16.50204 22649 ft 301 kts 193°
2026-05-05 09:08 67.95841 16.49020 22494 ft 298 kts 193°
2026-05-05 09:08 67.93837 16.47851 22340 ft 295 kts 193°
2026-05-05 09:08 67.91843 16.46689 22185 ft 292 kts 193°
2026-05-05 09:09 67.89914 16.45299 22016 ft 289 kts 204°
2026-05-05 09:09 67.88350 16.42087 21839 ft 284 kts 233°
2026-05-05 09:09 67.87453 16.37432 21600 ft 284 kts 251°
2026-05-05 09:09 67.86887 16.32446 21282 ft 288 kts 255°
2026-05-05 09:10 67.86411 16.27255 20931 ft 293 kts 257°
2026-05-05 09:10 67.85968 16.21874 20562 ft 298 kts 258°
2026-05-05 09:10 67.85547 16.16466 20189 ft 302 kts 258°
2026-05-05 09:10 67.85274 16.12883 19942 ft 305 kts 258°
2026-05-05 09:11 67.84912 16.08032 19621 ft 306 kts 256°
2026-05-05 09:11 67.84493 16.02387 18901 ft 316 kts 256°
2026-05-05 09:11 67.84071 15.96691 18421 ft 317 kts 256°
2026-05-05 09:11 67.83589 15.90986 17598 ft 320 kts 249°
2026-05-05 09:12 67.82435 15.86201 16798 ft 312 kts 225°
2026-05-05 09:12 67.80652 15.83022 16028 ft 307 kts 209°
2026-05-05 09:12 67.78796 15.80329 15345 ft 300 kts 211°
2026-05-05 09:12 67.77065 15.77469 14903 ft 295 kts 214°
2026-05-05 09:13 67.75382 15.74398 14597 ft 292 kts 216°
2026-05-05 09:13 67.73783 15.71263 14428 ft 286 kts 218°
2026-05-05 09:13 67.72215 15.68110 14149 ft 285 kts 217°
2026-05-05 09:13 67.70638 15.64904 13822 ft 285 kts 218°
2026-05-05 09:14 67.69087 15.61681 13480 ft 285 kts 218°
2026-05-05 09:14 67.67557 15.58466 13136 ft 285 kts 218°
2026-05-05 09:14 67.66000 15.55171 12780 ft 286 kts 218°
2026-05-05 09:14 67.64468 15.51922 12429 ft 286 kts 218°
2026-05-05 09:15 67.62911 15.48617 12071 ft 286 kts 218°
2026-05-05 09:15 67.61388 15.45383 11720 ft 286 kts 218°
2026-05-05 09:15 67.59838 15.42098 11364 ft 286 kts 219°
2026-05-05 09:15 67.58302 15.38846 11010 ft 285 kts 219°
2026-05-05 09:16 67.56754 15.35571 10654 ft 285 kts 219°
2026-05-05 09:16 67.55249 15.32383 10291 ft 273 kts 219°
2026-05-05 09:16 67.53828 15.29311 9961 ft 257 kts 220°
2026-05-05 09:16 67.52502 15.26451 9651 ft 241 kts 219°
2026-05-05 09:17 67.51241 15.23764 9364 ft 229 kts 219°
2026-05-05 09:17 67.50027 15.21197 9091 ft 223 kts 219°
2026-05-05 09:17 67.48830 15.18672 8819 ft 218 kts 219°
2026-05-05 09:17 67.47662 15.16215 8552 ft 214 kts 219°
2026-05-05 09:18 67.46508 15.13796 8288 ft 209 kts 220°
2026-05-05 09:18 67.45396 15.11471 8032 ft 204 kts 219°
2026-05-05 09:18 67.44289 15.09158 7785 ft 205 kts 220°
2026-05-05 09:18 67.43169 15.06816 7532 ft 206 kts 220°
2026-05-05 09:19 67.42059 15.04498 7280 ft 208 kts 220°
2026-05-05 09:19 67.40922 15.02130 7019 ft 209 kts 220°
2026-05-05 09:19 67.39774 14.99742 6758 ft 212 kts 220°
2026-05-05 09:19 67.38641 14.97407 6484 ft 207 kts 218°
2026-05-05 09:20 67.37348 14.95884 6218 ft 204 kts 194°
2026-05-05 09:20 67.35972 14.95473 5972 ft 200 kts 188°
2026-05-05 09:20 67.34593 14.95192 5759 ft 198 kts 188°
2026-05-05 09:20 67.33215 14.94895 5514 ft 203 kts 189°
2026-05-05 09:21 67.31789 14.94579 5252 ft 208 kts 188°
2026-05-05 09:21 67.30328 14.94238 4963 ft 214 kts 190°
2026-05-05 09:21 67.28886 14.93032 4427 ft 225 kts 213°
2026-05-05 09:21 67.27842 14.90035 3950 ft 228 kts 243°
2026-05-05 09:22 67.27452 14.86225 3641 ft 217 kts 262°
2026-05-05 09:22 67.27392 14.82412 3426 ft 203 kts 269°
2026-05-05 09:22 67.27438 14.78924 3221 ft 189 kts 271°
2026-05-05 09:22 67.27489 14.75635 3069 ft 172 kts 270°
2026-05-05 09:23 67.27515 14.72702 2919 ft 156 kts 269°
2026-05-05 09:23 67.27522 14.70009 2648 ft 143 kts 269°
2026-05-05 09:23 67.27519 14.67613 2403 ft 124 kts 268°
2026-05-05 09:23 67.27509 14.65456 2099 ft 121 kts 268°
2026-05-05 09:24 67.27500 14.63321 1765 ft 119 kts 268°
2026-05-05 09:24 67.27489 14.61218 1588 ft 113 kts 268°
2026-05-05 09:24 67.27477 14.59144 1596 ft 117 kts 268°
2026-05-05 09:24 67.27461 14.57031 1495 ft 117 kts 268°
2026-05-05 09:25 67.27441 14.54933 1360 ft 117 kts 268°
2026-05-05 09:25 67.27420 14.52817 1207 ft 118 kts 268°
2026-05-05 09:25 67.27400 14.50764 1121 ft 113 kts 268°
2026-05-05 09:25 67.27399 14.48651 1001 ft 118 kts 272°
2026-05-05 09:26 67.27513 14.46535 788 ft 117 kts 278°
2026-05-05 09:26 67.27549 14.44504 492 ft 111 kts 266°
2026-05-05 09:26 67.27436 14.42601 332 ft 107 kts 259°
2026-05-05 09:26 67.27270 14.40666 157 ft 108 kts 259°
2026-05-05 09:27 67.27121 14.38897 52 ft 86 kts 258°
2026-05-05 09:27 67.27038 14.37895 51 ft 37 kts 258°
2026-05-05 09:27 67.26991 14.37316 51 ft 32 kts 258°
2026-05-05 09:27 67.26948 14.36792 51 ft 27 kts 258°
2026-05-05 09:28 67.26949 14.36521 51 ft 7 kts 329°
2026-05-05 09:28 67.26990 14.36489 51 ft 8 kts 348°
2026-05-05 09:28 67.27075 14.36444 51 ft 16 kts 349°
2026-05-05 09:28 67.27164 14.36400 51 ft 8 kts
2026-05-05 09:29 67.27190 14.36472 51 ft 4 kts 67°
2026-05-05 09:29 67.27205 14.36557 51 ft 1 kts 66°
2026-05-05 09:29 67.27206 14.36561 51 ft 0 kts 66°